Time;durP1;ratioP1;P1;durP2;ratioP2;P2;SDS_P1;SDS_P2;PMS_P1;PMS_P2;Temp;Humidity;BMP_temperature;BMP_pressure;BME280_temperature;BME280_humidity;BME280_pressure;Samples;Min_cycle;Max_cycle;Signal;HPM_P1;HPM_P2
2024/01/25 00:00:59;;;;;;;15.80;12.90;;;;;;;-1.92;100.00;100705.38;106177;1256;73183;-77
2024/01/25 00:03:26;;;;;;;18.20;12.00;;;;;;;-1.89;100.00;100697.30;105969;1254;63895;-76
2024/01/25 00:05:54;;;;;;;17.20;13.20;;;;;;;-1.88;100.00;100696.94;105886;1254;72777;-78
2024/01/25 00:08:21;;;;;;;15.80;12.20;;;;;;;-1.87;100.00;100689.40;105786;1254;60492;-78
2024/01/25 00:10:48;;;;;;;20.90;14.30;;;;;;;-1.85;100.00;100683.92;105840;1260;60203;-82
2024/01/25 00:13:15;;;;;;;21.20;13.00;;;;;;;-1.84;100.00;100678.08;106452;1256;72888;-78
2024/01/25 00:15:42;;;;;;;15.70;11.90;;;;;;;-1.82;100.00;100673.42;108634;1253;63758;-78
2024/01/25 00:18:09;;;;;;;19.80;11.60;;;;;;;-1.80;100.00;100669.65;109243;1252;71367;-78
2024/01/25 00:20:36;;;;;;;20.60;12.30;;;;;;;-1.79;100.00;100663.48;106580;1257;59946;-77
2024/01/25 00:23:03;;;;;;;18.80;11.80;;;;;;;-1.79;100.00;100658.50;106073;1254;60116;-78
2024/01/25 00:25:30;;;;;;;20.60;12.80;;;;;;;-1.77;100.00;100650.27;105798;1257;73127;-79
2024/01/25 00:27:57;;;;;;;13.40;11.30;;;;;;;-1.77;100.00;100641.51;105956;1257;62866;-80
2024/01/25 00:30:24;;;;;;;17.80;12.10;;;;;;;-1.76;100.00;100643.73;105803;1257;72637;-80
2024/01/25 00:32:51;;;;;;;16.60;12.10;;;;;;;-1.76;100.00;100636.88;105917;1257;59927;-78
2024/01/25 00:35:18;;;;;;;17.80;12.20;;;;;;;-1.76;100.00;100633.80;105872;1258;59750;-80
2024/01/25 00:37:45;;;;;;;16.50;11.30;;;;;;;-1.77;100.00;100624.89;105928;1254;72902;-80
2024/01/25 00:40:14;;;;;;;17.10;12.80;;;;;;;-1.78;100.00;100621.48;105899;1254;62667;-79
2024/01/25 00:42:43;;;;;;;17.10;11.70;;;;;;;-1.78;100.00;100616.52;105808;1257;72701;-79
2024/01/25 00:45:11;;;;;;;17.70;11.80;;;;;;;-1.79;100.00;100607.61;105749;1257;61022;-79
2024/01/25 00:47:38;;;;;;;14.00;12.00;;;;;;;-1.80;100.00;100605.23;106077;1254;60240;-77
2024/01/25 00:50:06;;;;;;;16.20;12.00;;;;;;;-1.82;100.00;100598.73;105962;1255;72910;-79
2024/01/25 00:52:35;;;;;;;14.00;10.50;;;;;;;-1.83;100.00;100596.33;105911;1257;62683;-80
2024/01/25 00:55:03;;;;;;;16.50;11.20;;;;;;;-1.84;100.00;100585.90;105792;1254;72623;-78
2024/01/25 00:57:31;;;;;;;15.10;11.00;;;;;;;-1.84;100.00;100588.30;105868;1257;61909;-79
2024/01/25 00:59:58;;;;;;;14.80;10.90;;;;;;;-1.84;100.00;100580.77;105910;1254;60287;-81
2024/01/25 01:02:30;;;;;;;14.80;11.10;;;;;;;-1.84;100.00;100577.00;105837;1255;72942;-81
2024/01/25 01:04:58;;;;;;;18.60;11.80;;;;;;;-1.83;100.00;100577.66;105876;1257;63959;-79
2024/01/25 01:07:25;;;;;;;15.40;11.20;;;;;;;-1.83;100.00;100564.13;105850;1256;72828;-80
2024/01/25 01:09:52;;;;;;;15.80;11.20;;;;;;;-1.83;100.00;100563.79;105866;1256;61991;-82
2024/01/25 01:12:20;;;;;;;17.30;12.30;;;;;;;-1.84;100.00;100557.11;105816;1254;60288;-80
2024/01/25 01:14:47;;;;;;;15.70;13.30;;;;;;;-1.84;100.00;100543.77;105874;1257;73038;-83
2024/01/25 01:17:15;;;;;;;13.40;10.40;;;;;;;-1.84;100.00;100539.47;105983;1257;62831;-83
2024/01/25 01:19:42;;;;;;;18.90;12.00;;;;;;;-1.83;100.00;100538.77;105885;1254;72758;-81
2024/01/25 01:22:10;;;;;;;15.30;12.10;;;;;;;-1.82;100.00;100539.27;105903;1256;62077;-82
2024/01/25 01:24:37;;;;;;;16.20;11.40;;;;;;;-1.81;100.00;100540.63;105820;1253;60289;-81
2024/01/25 01:27:04;;;;;;;15.60;11.60;;;;;;;-1.80;100.00;100532.22;105714;1257;72199;-80
2024/01/25 01:29:31;;;;;;;13.80;10.70;;;;;;;-1.78;100.00;100528.61;105950;1256;63687;-79
2024/01/25 01:31:57;;;;;;;17.50;12.20;;;;;;;-1.76;100.00;100525.84;105940;1253;71128;-81
2024/01/25 01:34:24;;;;;;;14.40;11.30;;;;;;;-1.75;100.00;100520.52;107208;1253;61042;-77
2024/01/25 01:36:51;;;;;;;17.20;11.80;;;;;;;-1.74;100.00;100514.52;108907;1253;59635;-78
2024/01/25 01:39:18;;;;;;;14.90;11.80;;;;;;;-1.73;100.00;100508.15;109282;1252;71781;-78
2024/01/25 01:41:49;;;;;;;19.80;11.70;;;;;;;-1.73;100.00;100504.05;108773;1252;61631;-79
2024/01/25 01:44:16;;;;;;;17.90;12.90;;;;;;;-1.72;100.00;100495.80;109502;1252;71625;-79
2024/01/25 01:46:43;;;;;;;16.40;11.40;;;;;;;-1.71;100.00;100495.28;108596;1251;60062;-81
2024/01/25 01:49:11;;;;;;;17.10;11.90;;;;;;;-1.71;100.00;100491.34;105867;1252;60452;-78
2024/01/25 01:51:38;;;;;;;15.70;11.80;;;;;;;-1.70;100.00;100484.30;106248;1254;72834;-78
2024/01/25 01:54:08;;;;;;;17.70;12.50;;;;;;;-1.68;100.00;100487.20;105875;1254;62337;-82
2024/01/25 01:56:36;;;;;;;16.60;12.10;;;;;;;-1.66;100.00;100485.46;105962;1256;72693;-79
2024/01/25 01:59:04;;;;;;;17.00;12.40;;;;;;;-1.63;100.00;100478.21;105809;1256;61869;-80
2024/01/25 02:01:32;;;;;;;15.50;12.00;;;;;;;-1.61;100.00;100481.63;105797;1254;60274;-79
2024/01/25 02:04:01;;;;;;;16.30;11.70;;;;;;;-1.60;100.00;100479.20;106189;1256;72066;-81
2024/01/25 02:06:28;;;;;;;15.80;10.80;;;;;;;-1.58;100.00;100473.02;105960;1257;63894;-79
2024/01/25 02:08:58;;;;;;;14.40;11.30;;;;;;;-1.57;100.00;100467.52;105864;1253;72608;-82
2024/01/25 02:11:26;;;;;;;16.00;11.80;;;;;;;-1.55;100.00;100457.73;105939;1254;60952;-81
2024/01/25 02:13:54;;;;;;;17.90;11.60;;;;;;;-1.53;100.00;100457.36;105975;1254;60093;-80
2024/01/25 02:16:21;;;;;;;15.20;11.20;;;;;;;-1.53;100.00;100446.04;105951;1251;73123;-80
2024/01/25 02:18:48;;;;;;;17.60;12.40;;;;;;;-1.52;100.00;100442.26;105805;1257;64495;-80
2024/01/25 02:21:15;;;;;;;19.60;11.50;;;;;;;-1.50;100.00;100430.21;105977;1254;72927;-80
2024/01/25 02:23:43;;;;;;;16.60;12.20;;;;;;;-1.48;100.00;100434.14;105983;1256;61259;-79
2024/01/25 02:26:09;;;;;;;15.80;11.90;;;;;;;-1.46;100.00;100427.60;105932;1254;61131;-78
2024/01/25 02:28:36;;;;;;;15.50;11.30;;;;;;;-1.45;100.00;100420.90;105816;1253;72618;-79
2024/01/25 02:31:03;;;;;;;17.20;11.80;;;;;;;-1.45;100.00;100419.87;105871;1254;63971;-78
2024/01/25 02:33:30;;;;;;;16.40;10.70;;;;;;;-1.44;100.00;100410.60;105849;1253;71163;-80
2024/01/25 02:35:58;;;;;;;20.80;12.90;;;;;;;-1.43;100.00;100404.42;105927;1256;60381;-81
2024/01/25 02:38:25;;;;;;;16.60;11.10;;;;;;;-1.43;100.00;100395.84;105826;1253;60447;-81
2024/01/25 02:40:55;;;;;;;16.00;11.80;;;;;;;-1.42;100.00;100391.20;105902;1254;73796;-79
2024/01/25 02:43:22;;;;;;;18.30;12.40;;;;;;;-1.42;100.00;100392.39;106000;1256;63917;-78
2024/01/25 02:45:49;;;;;;;15.00;11.80;;;;;;;-1.41;100.00;100389.29;105891;1252;72719;-79
2024/01/25 02:48:18;;;;;;;20.10;12.60;;;;;;;-1.41;100.00;100386.39;105865;1256;60890;-80
2024/01/25 02:50:45;;;;;;;17.80;12.70;;;;;;;-1.41;100.00;100381.77;105931;1251;60530;-79
2024/01/25 02:53:12;;;;;;;16.80;12.20;;;;;;;-1.42;100.00;100376.29;105794;1256;73743;-78
2024/01/25 02:55:39;;;;;;;16.20;11.50;;;;;;;-1.42;100.00;100378.50;105823;1256;62923;-79
2024/01/25 02:58:07;;;;;;;19.30;13.30;;;;;;;-1.41;100.00;100370.78;105869;1254;72696;-82
2024/01/25 03:00:34;;;;;;;18.80;12.70;;;;;;;-1.41;100.00;100367.70;105826;1254;61210;-84
2024/01/25 03:03:01;;;;;;;18.50;12.50;;;;;;;-1.42;100.00;100363.25;105915;1251;60356;-80
2024/01/25 03:05:28;;;;;;;20.30;14.20;;;;;;;-1.44;100.00;100358.65;105998;1256;73790;-80
2024/01/25 03:07:55;;;;;;;23.20;13.60;;;;;;;-1.46;100.00;100353.70;106006;1255;63742;-78
2024/01/25 03:10:23;;;;;;;20.70;13.20;;;;;;;-1.45;100.00;100351.31;106496;1254;72716;-77
2024/01/25 03:12:50;;;;;;;21.30;13.90;;;;;;;-1.44;100.00;100345.46;107932;1251;60543;-80
2024/01/25 03:15:18;;;;;;;22.80;15.40;;;;;;;-1.44;100.00;100341.52;106723;1254;60546;-82
2024/01/25 03:17:44;;;;;;;20.40;15.00;;;;;;;-1.44;100.00;100343.06;105792;1254;73854;-80
2024/01/25 03:20:11;;;;;;;21.50;14.30;;;;;;;-1.44;100.00;100337.05;105777;1256;63615;-79
2024/01/25 03:22:38;;;;;;;19.70;14.60;;;;;;;-1.43;100.00;100333.78;105800;1254;72661;-80
2024/01/25 03:25:06;;;;;;;19.70;14.50;;;;;;;-1.42;100.00;100333.59;105877;1256;61196;-78
2024/01/25 03:27:33;;;;;;;19.00;13.70;;;;;;;-1.40;100.00;100328.77;105918;1253;60588;-79
2024/01/25 03:30:00;;;;;;;23.50;16.20;;;;;;;-1.39;100.00;100327.04;105821;1256;73764;-79
2024/01/25 03:32:27;;;;;;;22.40;15.80;;;;;;;-1.38;100.00;100323.94;105917;1256;63929;-78
2024/01/25 03:34:58;;;;;;;27.30;17.30;;;;;;;-1.36;100.00;100322.18;105887;1253;72601;-81
2024/01/25 03:37:26;;;;;;;20.60;14.20;;;;;;;-1.35;100.00;100316.67;105989;1256;61170;-82
2024/01/25 03:39:53;;;;;;;22.40;13.00;;;;;;;-1.33;100.00;100318.54;105717;1260;60456;-78
2024/01/25 03:42:20;;;;;;;21.40;13.90;;;;;;;-1.33;100.00;100313.73;105906;1254;73757;-78
2024/01/25 03:44:47;;;;;;;20.90;14.10;;;;;;;-1.33;100.00;100312.88;107096;1253;62253;-78
2024/01/25 03:47:15;;;;;;;17.90;13.50;;;;;;;-1.34;100.00;100306.88;106544;1254;72680;-78
2024/01/25 03:49:43;;;;;;;20.20;13.10;;;;;;;-1.33;100.00;100306.20;106347;1257;61209;-79
2024/01/25 03:52:11;;;;;;;20.70;14.00;;;;;;;-1.33;100.00;100303.27;106731;1253;60416;-81
2024/01/25 03:54:39;;;;;;;18.70;14.20;;;;;;;-1.33;100.00;100303.27;105906;1256;73756;-80
2024/01/25 03:57:06;;;;;;;22.80;16.80;;;;;;;-1.33;100.00;100297.46;106603;1253;62623;-79
2024/01/25 03:59:32;;;;;;;19.60;14.50;;;;;;;-1.34;100.00;100304.48;106541;1254;72692;-81
2024/01/25 04:01:59;;;;;;;18.30;12.80;;;;;;;-1.35;100.00;100294.91;107009;1253;61080;-78
2024/01/25 04:04:27;;;;;;;20.40;13.40;;;;;;;-1.37;100.00;100289.60;107448;1254;60672;-80
2024/01/25 04:06:54;;;;;;;16.90;13.40;;;;;;;-1.37;100.00;100278.64;106153;1253;73616;-81
2024/01/25 04:09:21;;;;;;;18.00;13.90;;;;;;;-1.37;100.00;100278.82;105939;1256;63796;-81
2024/01/25 04:11:47;;;;;;;18.60;13.60;;;;;;;-1.37;100.00;100266.98;105777;1256;72521;-82
2024/01/25 04:14:15;;;;;;;18.40;13.60;;;;;;;-1.35;100.00;100268.50;105975;1256;61090;-80
2024/01/25 04:16:46;;;;;;;17.80;13.10;;;;;;;-1.34;100.00;100262.65;105844;1256;60527;-79
2024/01/25 04:19:13;;;;;;;18.40;12.90;;;;;;;-1.34;100.00;100256.81;105838;1256;73799;-81
2024/01/25 04:21:40;;;;;;;19.30;14.90;;;;;;;-1.33;100.00;100255.25;105859;1256;63960;-80
2024/01/25 04:24:07;;;;;;;17.80;13.60;;;;;;;-1.32;100.00;100253.70;105816;1254;72580;-80
2024/01/25 04:26:34;;;;;;;17.50;13.00;;;;;;;-1.33;100.00;100245.98;105733;1256;60427;-82
2024/01/25 04:29:01;;;;;;;19.60;14.40;;;;;;;-1.32;100.00;100243.75;105693;1253;60425;-80
2024/01/25 04:31:28;;;;;;;19.30;14.40;;;;;;;-1.31;100.00;100243.56;105766;1254;74525;-80
2024/01/25 04:33:55;;;;;;;19.50;14.20;;;;;;;-1.31;100.00;100243.39;105832;1253;62861;-78
2024/01/25 04:36:22;;;;;;;19.80;14.80;;;;;;;-1.30;100.00;100241.14;105714;1256;71315;-80
2024/01/25 04:38:49;;;;;;;24.40;15.10;;;;;;;-1.28;100.00;100239.20;105691;1256;60449;-80
2024/01/25 04:41:17;;;;;;;22.50;14.90;;;;;;;-1.25;100.00;100232.65;105944;1254;60635;-80
2024/01/25 04:43:44;;;;;;;20.60;14.80;;;;;;;-1.23;100.00;100224.73;105827;1256;72890;-80
2024/01/25 04:46:11;;;;;;;19.60;14.10;;;;;;;-1.20;100.00;100219.02;105671;1256;62625;-82
2024/01/25 04:48:39;;;;;;;23.50;14.90;;;;;;;-1.19;100.00;100221.41;105780;1252;72687;-84
2024/01/25 04:51:06;;;;;;;23.40;16.00;;;;;;;-1.19;100.00;100216.27;105823;1254;60424;-77
2024/01/25 04:53:34;;;;;;;18.40;13.40;;;;;;;-1.19;100.00;100216.77;105686;1256;60524;-81
2024/01/25 04:56:01;;;;;;;22.40;15.20;;;;;;;-1.18;100.00;100213.16;105875;1253;73835;-81
2024/01/25 04:58:28;;;;;;;22.40;15.70;;;;;;;-1.16;100.00;100207.29;105731;1256;62873;-80
2024/01/25 05:01:01;;;;;;;17.50;13.90;;;;;;;-1.15;100.00;100205.55;105625;1253;72639;-79
2024/01/25 05:03:40;;;;;;;22.90;14.70;;;;;;;-1.15;100.00;100198.17;105740;1253;61252;-81
2024/01/25 05:06:07;;;;;;;17.90;12.20;;;;;;;-1.14;100.00;100193.35;105778;1256;60440;-82
2024/01/25 05:08:34;;;;;;;20.40;13.50;;;;;;;-1.12;100.00;100183.36;105839;1254;74067;-83
2024/01/25 05:11:00;;;;;;;24.90;14.80;;;;;;;-1.09;100.00;100178.51;105807;1254;63992;-85
2024/01/25 05:13:28;;;;;;;20.50;14.40;;;;;;;-1.07;100.00;100176.75;105725;1256;72544;-79
2024/01/25 05:15:55;;;;;;;18.30;13.00;;;;;;;-1.05;100.00;100170.02;105795;1256;61169;-81
2024/01/25 05:18:22;;;;;;;19.60;14.80;;;;;;;-1.02;100.00;100167.56;105805;1255;60441;-81
2024/01/25 05:20:49;;;;;;;18.70;14.20;;;;;;;-0.99;100.00;100168.36;105720;1253;72316;-83
2024/01/25 05:23:16;;;;;;;19.30;14.80;;;;;;;-0.95;100.00;100167.42;105873;1256;63952;-82
2024/01/25 05:25:43;;;;;;;18.60;14.10;;;;;;;-0.92;100.00;100159.46;105836;1255;72703;-80
2024/01/25 05:28:12;;;;;;;16.60;13.00;;;;;;;-0.88;100.00;100160.08;106239;1253;60524;-80
2024/01/25 05:30:39;;;;;;;22.00;13.80;;;;;;;-0.84;100.00;100157.24;108592;1253;60341;-79
2024/01/25 05:33:07;;;;;;;17.00;13.20;;;;;;;-0.82;100.00;100155.31;108523;1253;72495;-78
2024/01/25 05:35:34;;;;;;;19.40;13.30;;;;;;;-0.79;100.00;100148.05;108892;1253;63657;-81
2024/01/25 05:38:19;;;;;;;17.10;12.60;;;;;;;-0.76;100.00;100146.96;107888;1256;71515;-80
2024/01/25 05:40:55;;;;;;;19.80;13.10;;;;;;;-0.73;100.00;100141.25;105986;1254;60545;-82
2024/01/25 05:43:29;;;;;;;20.60;13.80;;;;;;;-0.73;100.00;100133.84;105849;1253;60425;-79
2024/01/25 05:45:56;;;;;;;18.70;13.40;;;;;;;-0.72;100.00;100127.15;105687;1256;73009;-79
2024/01/25 05:48:23;;;;;;;23.80;16.50;;;;;;;-0.69;100.00;100124.85;105857;1253;63937;-80
2024/01/25 05:50:50;;;;;;;21.20;14.10;;;;;;;-0.67;100.00;100120.50;105742;1254;71405;-82
2024/01/25 05:53:19;;;;;;;17.80;12.70;;;;;;;-0.64;100.00;100118.21;105773;1254;60469;-81
2024/01/25 05:55:46;;;;;;;22.10;15.00;;;;;;;-0.61;100.00;100115.75;105836;1254;60546;-81
2024/01/25 05:58:13;;;;;;;23.50;15.30;;;;;;;-0.59;100.00;100113.64;105788;1253;72312;-79
2024/01/25 06:00:40;;;;;;;21.10;14.30;;;;;;;-0.57;100.00;100105.52;105821;1256;63896;-80
2024/01/25 06:03:07;;;;;;;17.20;13.60;;;;;;;-0.54;100.00;100104.59;105698;1254;72561;-80
2024/01/25 06:05:35;;;;;;;19.80;13.80;;;;;;;-0.50;100.00;100102.43;105750;1256;61225;-82
2024/01/25 06:08:02;;;;;;;16.80;12.80;;;;;;;-0.48;100.00;100100.50;105855;1254;60479;-82
2024/01/25 06:10:29;;;;;;;20.10;13.20;;;;;;;-0.44;100.00;100095.95;105795;1256;73851;-80
2024/01/25 06:12:56;;;;;;;16.60;12.30;;;;;;;-0.39;100.00;100092.05;105739;1254;63164;-82
2024/01/25 06:15:23;;;;;;;16.90;12.80;;;;;;;-0.35;100.00;100086.13;105906;1256;72577;-83
2024/01/25 06:17:50;;;;;;;14.40;11.40;;;;;;;-0.30;100.00;100086.00;105864;1256;61054;-83
2024/01/25 06:20:17;;;;;;;15.50;10.70;;;;;;;-0.25;100.00;100076.95;105796;1254;60816;-83
2024/01/25 06:22:45;;;;;;;13.40;10.10;;;;;;;-0.21;100.00;100074.96;105702;1253;73900;-81
2024/01/25 06:25:12;;;;;;;17.00;10.60;;;;;;;-0.16;100.00;100072.77;105798;1256;63996;-81
2024/01/25 06:27:39;;;;;;;14.40;10.20;;;;;;;-0.11;100.00;100064.76;105877;1253;71496;-80
2024/01/25 06:30:06;;;;;;;13.90;11.00;;;;;;;-0.07;100.00;100063.61;105880;1253;60464;-81
2024/01/25 06:32:33;;;;;;;15.70;13.10;;;;;;;-0.03;100.00;100054.23;105798;1254;60479;-80
2024/01/25 06:35:00;;;;;;;14.90;11.70;;;;;;;0.02;100.00;100054.29;105725;1253;73878;-79
2024/01/25 06:37:28;;;;;;;15.50;10.90;;;;;;;0.06;100.00;100050.23;106310;1256;63717;-79
2024/01/25 06:39:55;;;;;;;15.70;11.30;;;;;;;0.08;100.00;100050.86;105759;1253;72811;-81
2024/01/25 06:42:22;;;;;;;16.10;11.60;;;;;;;0.10;100.00;100049.42;105771;1256;61221;-84
2024/01/25 06:44:49;;;;;;;13.90;10.70;;;;;;;0.13;100.00;100044.20;105831;1256;60457;-80
2024/01/25 06:47:17;;;;;;;15.60;11.20;;;;;;;0.16;100.00;100042.56;105741;1257;73911;-81
2024/01/25 06:49:49;;;;;;;15.20;11.20;;;;;;;0.19;100.00;100039.06;105760;1257;63818;-80
2024/01/25 06:52:16;;;;;;;17.10;11.80;;;;;;;0.22;100.00;100037.27;105957;1254;72680;-81
2024/01/25 06:54:43;;;;;;;17.20;11.90;;;;;;;0.23;100.00;100036.20;105840;1254;60922;-79
2024/01/25 06:57:11;;;;;;;17.40;11.50;;;;;;;0.24;100.00;100036.52;105880;1257;60549;-81
2024/01/25 06:59:37;;;;;;;16.60;12.50;;;;;;;0.25;100.00;100038.05;105767;1254;72388;-81
2024/01/25 07:02:05;;;;;;;13.50;10.20;;;;;;;0.28;100.00;100033.65;105809;1253;62915;-82
2024/01/25 07:04:33;;;;;;;14.20;10.60;;;;;;;0.30;100.00;100037.20;105775;1256;71723;-79
2024/01/25 07:07:00;;;;;;;14.40;10.30;;;;;;;0.35;100.00;100038.11;105836;1254;60880;-81
2024/01/25 07:09:27;;;;;;;13.20;10.00;;;;;;;0.38;100.00;100035.11;105802;1253;60544;-82
2024/01/25 07:11:54;;;;;;;13.60;10.50;;;;;;;0.41;100.00;100032.27;105785;1256;72485;-81
2024/01/25 07:14:21;;;;;;;16.70;12.60;;;;;;;0.45;100.00;100029.77;105720;1257;63597;-82
2024/01/25 07:16:48;;;;;;;19.20;13.60;;;;;;;0.49;100.00;100026.55;105762;1254;72330;-82
2024/01/25 07:19:16;;;;;;;14.40;10.30;;;;;;;0.54;100.00;100026.05;105771;1256;61284;-82
2024/01/25 07:21:45;;;;;;;13.70;9.90;;;;;;;0.60;100.00;100031.06;105988;1256;60438;-79
2024/01/25 07:24:12;;;;;;;12.30;9.70;;;;;;;0.66;100.00;100031.40;106596;1254;73911;-82
2024/01/25 07:26:40;;;;;;;14.90;11.40;;;;;;;0.72;100.00;100027.27;106325;1256;62071;-78
2024/01/25 07:29:07;;;;;;;12.60;10.10;;;;;;;0.76;100.00;100021.30;106418;1257;70885;-77
2024/01/25 07:31:34;;;;;;;14.80;10.90;;;;;;;0.79;100.00;100022.06;106761;1256;61665;-82
2024/01/25 07:34:01;;;;;;;15.30;11.00;;;;;;;0.83;100.00;100022.66;105950;1254;60411;-82
2024/01/25 07:36:28;;;;;;;16.90;12.30;;;;;;;0.87;100.00;100023.23;105850;1253;75149;-80
2024/01/25 07:38:54;;;;;;;12.70;9.90;;;;;;;0.92;100.00;100018.26;105894;1254;62886;-79
2024/01/25 07:41:22;;;;;;;14.90;10.70;;;;;;;0.98;100.00;100014.80;105828;1254;73585;-81
2024/01/25 07:43:49;;;;;;;17.00;12.20;;;;;;;1.03;100.00;100007.77;105816;1253;61986;-84
2024/01/25 07:46:17;;;;;;;13.70;10.70;;;;;;;1.09;100.00;100007.59;105991;1254;60566;-83
2024/01/25 07:48:44;;;;;;;13.30;10.10;;;;;;;1.12;100.00;100008.68;106090;1253;73858;-81
2024/01/25 07:51:14;;;;;;;18.90;13.90;;;;;;;1.15;100.00;100013.78;105804;1254;64342;-78
2024/01/25 07:53:41;;;;;;;16.70;12.10;;;;;;;1.17;100.00;100012.34;105740;1254;73665;-83
2024/01/25 07:56:10;;;;;;;14.90;10.40;;;;;;;1.20;100.00;100009.98;105826;1256;61284;-79
2024/01/25 07:58:37;;;;;;;14.50;11.50;;;;;;;1.24;100.00;100008.31;105742;1256;60389;-83
2024/01/25 08:01:07;;;;;;;15.20;10.50;;;;;;;1.26;100.00;100008.41;105689;1254;74193;-79
2024/01/25 08:03:36;;;;;;;17.00;12.30;;;;;;;1.28;100.00;100004.08;105827;1256;62832;-81
2024/01/25 08:06:03;;;;;;;13.00;9.40;;;;;;;1.31;100.00;100004.67;105835;1256;72400;-82
2024/01/25 08:08:31;;;;;;;12.20;9.00;;;;;;;1.33;100.00;100002.16;105768;1258;61328;-80
2024/01/25 08:10:59;;;;;;;14.50;10.40;;;;;;;1.37;100.00;100003.27;105754;1253;60547;-81
2024/01/25 08:13:28;;;;;;;18.60;11.30;;;;;;;1.39;100.00;100002.84;105763;1256;73028;-78
2024/01/25 08:15:57;;;;;;;14.20;10.10;;;;;;;1.42;100.00;100002.23;105762;1254;63847;-81
2024/01/25 08:18:24;;;;;;;11.50;9.40;;;;;;;1.46;100.00;99999.17;105858;1254;73918;-80
2024/01/25 08:20:51;;;;;;;12.70;9.10;;;;;;;1.50;100.00;99996.11;105749;1256;60985;-81
2024/01/25 08:23:19;;;;;;;13.00;8.70;;;;;;;1.54;100.00;100000.63;105791;1253;60433;-82
2024/01/25 08:25:46;;;;;;;10.70;8.60;;;;;;;1.57;100.00;99999.66;105862;1256;72049;-81
2024/01/25 08:28:13;;;;;;;12.20;9.40;;;;;;;1.59;100.00;99998.75;105862;1252;63874;-81
2024/01/25 08:30:40;;;;;;;10.80;9.00;;;;;;;1.61;100.00;99997.13;105754;1254;73530;-80
2024/01/25 08:33:07;;;;;;;13.20;9.50;;;;;;;1.63;100.00;99998.44;105749;1256;61261;-79
2024/01/25 08:35:34;;;;;;;11.30;9.20;;;;;;;1.65;100.00;99998.89;105867;1256;60354;-79
2024/01/25 08:38:02;;;;;;;10.10;8.40;;;;;;;1.66;100.00;99986.10;105845;1254;72994;-80
2024/01/25 08:40:30;;;;;;;13.30;8.90;;;;;;;1.67;100.00;99982.30;105832;1256;64953;-80
2024/01/25 08:42:57;;;;;;;11.90;9.40;;;;;;;1.67;100.00;99984.36;105869;1254;72830;-80
2024/01/25 08:45:24;;;;;;;13.20;10.30;;;;;;;1.67;100.00;99979.02;105869;1253;61303;-78
2024/01/25 08:47:52;;;;;;;10.10;8.10;;;;;;;1.68;100.00;99980.36;105835;1254;60633;-79
2024/01/25 08:50:19;;;;;;;11.30;7.80;;;;;;;1.68;100.00;99973.64;105881;1254;73783;-78
2024/01/25 08:52:47;;;;;;;9.60;7.30;;;;;;;1.68;100.00;99971.08;105919;1256;63960;-79
2024/01/25 08:55:14;;;;;;;10.00;7.50;;;;;;;1.67;100.00;99967.13;105843;1254;72922;-78
2024/01/25 08:57:41;;;;;;;8.20;6.80;;;;;;;1.66;100.00;99964.05;105763;1258;62236;-80
2024/01/25 09:00:12;;;;;;;8.40;6.80;;;;;;;1.64;100.00;99959.80;105829;1254;60439;-80
2024/01/25 09:02:39;;;;;;;10.80;7.60;;;;;;;1.64;100.00;99956.52;105827;1253;75040;-81
2024/01/25 09:05:06;;;;;;;9.20;7.30;;;;;;;1.64;100.00;99952.06;105829;1254;64191;-80
2024/01/25 09:07:34;;;;;;;9.40;8.10;;;;;;;1.65;100.00;99951.85;105978;1256;72503;-79
2024/01/25 09:10:01;;;;;;;7.50;6.00;;;;;;;1.66;100.00;99952.49;105739;1257;60961;-80
2024/01/25 09:12:29;;;;;;;8.50;6.90;;;;;;;1.66;100.00;99949.05;105805;1253;61300;-79
2024/01/25 09:14:56;;;;;;;8.40;6.60;;;;;;;1.65;100.00;99946.33;105822;1254;73953;-78
2024/01/25 09:17:24;;;;;;;9.90;6.80;;;;;;;1.66;100.00;99943.52;105811;1256;63826;-80
2024/01/25 09:19:51;;;;;;;9.00;6.30;;;;;;;1.66;100.00;99943.02;105836;1256;71324;-80
2024/01/25 09:22:22;;;;;;;9.30;7.60;;;;;;;1.67;100.00;99941.46;105868;1256;61940;-80
2024/01/25 09:24:48;;;;;;;9.40;7.30;;;;;;;1.70;100.00;99937.58;106257;1252;60422;-80
2024/01/25 09:27:16;;;;;;;7.20;6.50;;;;;;;1.72;100.00;99941.95;106588;1254;72674;-77
2024/01/25 09:29:42;;;;;;;7.00;5.90;;;;;;;1.75;100.00;99939.80;108528;1254;63016;-76
2024/01/25 09:32:10;;;;;;;7.40;5.40;;;;;;;1.78;100.00;99937.80;108110;1256;71610;-76
2024/01/25 09:34:37;;;;;;;9.00;6.70;;;;;;;1.82;100.00;99935.06;105942;1254;61190;-79
2024/01/25 09:37:06;;;;;;;7.50;6.40;;;;;;;1.85;100.00;99931.69;105797;1256;60393;-79
2024/01/25 09:39:35;;;;;;;7.20;6.40;;;;;;;1.86;100.00;99927.88;105879;1255;73909;-78
2024/01/25 09:42:03;;;;;;;9.60;7.70;;;;;;;1.86;100.00;99923.71;105888;1253;63251;-80
2024/01/25 09:44:31;;;;;;;7.50;6.50;;;;;;;1.86;100.00;99920.98;105859;1254;70409;-80
2024/01/25 09:46:58;;;;;;;9.60;7.40;;;;;;;1.88;100.00;99916.79;105881;1256;61234;-79
2024/01/25 09:49:25;;;;;;;10.10;8.20;;;;;;;1.90;100.00;99917.58;105748;1256;60469;-81
2024/01/25 09:51:52;;;;;;;10.10;7.50;;;;;;;1.91;100.00;99912.52;105812;1254;74280;-80
2024/01/25 09:54:20;;;;;;;12.10;7.50;;;;;;;1.94;100.00;99910.54;105633;1259;65154;-80
2024/01/25 09:56:47;;;;;;;11.90;8.00;;;;;;;1.95;100.00;99907.05;105737;1258;72958;-81
2024/01/25 09:59:14;;;;;;;11.60;8.00;;;;;;;1.99;100.00;99905.01;105785;1254;61921;-80
2024/01/25 10:01:41;;;;;;;12.30;9.80;;;;;;;2.05;100.00;99905.11;105851;1256;60351;-80
2024/01/25 10:04:08;;;;;;;10.90;8.60;;;;;;;2.12;100.00;99903.15;105792;1256;74787;-79
2024/01/25 10:06:35;;;;;;;12.10;10.00;;;;;;;2.14;100.00;99900.67;105947;1256;64163;-81
2024/01/25 10:09:04;;;;;;;11.90;9.70;;;;;;;2.16;100.00;99896.96;105785;1254;72482;-79
2024/01/25 10:11:35;;;;;;;11.10;8.80;;;;;;;2.19;100.00;99894.29;105757;1257;62414;-79
2024/01/25 10:14:08;;;;;;;11.90;9.40;;;;;;;2.21;100.00;99890.55;105751;1256;60438;-79
2024/01/25 10:16:35;;;;;;;15.60;11.10;;;;;;;2.25;100.00;99885.41;105738;1256;74070;-80
2024/01/25 10:19:04;;;;;;;9.00;7.60;;;;;;;2.30;100.00;99883.16;105820;1256;64122;-79
2024/01/25 10:21:32;;;;;;;12.40;8.50;;;;;;;2.33;100.00;99882.19;105740;1257;71989;-79
2024/01/25 10:24:00;;;;;;;17.90;10.10;;;;;;;2.35;100.00;99878.69;105747;1253;61202;-79
2024/01/25 10:26:28;;;;;;;16.00;11.20;;;;;;;2.37;100.00;99874.96;105841;1254;61432;-80
2024/01/25 10:28:55;;;;;;;15.10;9.90;;;;;;;2.41;100.00;99873.95;105621;1254;162058;-79
2024/01/25 10:32:12;;;;;;;15.20;10.70;;;;;;;2.44;100.00;99868.85;102759;1291;599549;-80
2024/01/25 10:34:40;;;;;;;16.20;11.10;;;;;;;2.44;100.00;99869.20;104724;1274;62172;-79
2024/01/25 10:37:08;;;;;;;13.20;10.10;;;;;;;2.47;100.00;99865.45;104830;1272;59410;-81
2024/01/25 10:39:37;;;;;;;15.00;11.20;;;;;;;2.53;100.00;99868.35;104893;1267;71629;-79
2024/01/25 10:42:05;;;;;;;15.50;10.80;;;;;;;2.52;100.00;99870.41;104967;1272;62910;-79
2024/01/25 10:44:32;;;;;;;16.60;11.00;;;;;;;2.53;100.00;99868.14;104970;1270;72743;-78
2024/01/25 10:47:03;;;;;;;14.50;10.00;;;;;;;2.53;100.00;99865.20;104845;1270;177707;-81
2024/01/25 10:49:31;;;;;;;12.20;9.20;;;;;;;2.53;100.00;99867.60;105109;1269;59352;-79
2024/01/25 10:51:58;;;;;;;11.10;9.00;;;;;;;2.52;100.00;99863.52;104979;1264;74862;-80
2024/01/25 10:54:26;;;;;;;10.80;8.80;;;;;;;2.50;100.00;99857.57;105063;1278;63998;-78
2024/01/25 10:56:54;;;;;;;10.20;8.90;;;;;;;2.48;100.00;99857.82;104944;1268;75069;-79
2024/01/25 10:59:25;;;;;;;10.90;9.00;;;;;;;2.46;100.00;99857.89;105107;1264;59711;-79
2024/01/25 11:01:54;;;;;;;12.00;9.10;;;;;;;2.44;100.00;99851.93;104921;1264;61898;-78
2024/01/25 11:04:22;;;;;;;12.00;9.20;;;;;;;2.43;100.00;99853.20;105084;1269;74604;-79